createdAt,value
2023-11-24T00:00:34.222Z,564.4
2023-11-24T00:01:36.448Z,564.3
2023-11-24T00:02:38.560Z,564.1
2023-11-24T00:03:40.934Z,564.5
2023-11-24T00:04:42.848Z,564.9
2023-11-24T00:05:44.617Z,564.5
2023-11-24T00:06:46.778Z,564.5
2023-11-24T00:07:48.584Z,564.6
2023-11-24T00:08:50.448Z,564.7
2023-11-24T00:09:52.395Z,564.6
2023-11-24T00:10:54.402Z,564.7
2023-11-24T00:11:56.184Z,565
2023-11-24T00:12:58.264Z,565.1
2023-11-24T00:14:00.351Z,565
2023-11-24T00:15:02.361Z,565.1
2023-11-24T00:16:04.748Z,565.4
2023-11-24T00:17:06.579Z,565.5
2023-11-24T00:18:08.566Z,565.9
2023-11-24T00:19:10.629Z,566.5
2023-11-24T00:20:12.672Z,566.6
2023-11-24T00:21:17.138Z,566.5
2023-11-24T00:22:18.895Z,566.9
2023-11-24T00:23:20.647Z,566.8
2023-11-24T00:24:22.880Z,567.4
2023-11-24T00:25:24.690Z,567.9
2023-11-24T00:26:26.406Z,567.5
2023-11-24T00:27:28.375Z,568
2023-11-24T00:28:30.246Z,568.6
2023-11-24T00:29:32.009Z,568.5
2023-11-24T00:30:34.544Z,568.8
2023-11-24T00:31:36.326Z,569.1
2023-11-24T00:32:38.439Z,569.1
2023-11-24T00:33:41.268Z,568.7
2023-11-24T00:34:43.558Z,568.3
2023-11-24T00:35:45.302Z,568.6
2023-11-24T00:36:47.373Z,570
2023-11-24T00:37:49.173Z,571
2023-11-24T00:38:50.909Z,571.2
2023-11-24T00:39:52.917Z,570.9
2023-11-24T00:40:54.738Z,570.9
2023-11-24T00:41:56.495Z,570.7
2023-11-24T00:42:58.374Z,570.6
2023-11-24T00:44:00.189Z,570.6
2023-11-24T00:45:02.034Z,570.2
2023-11-24T00:46:03.928Z,570.2
2023-11-24T00:47:06.222Z,570.6
2023-11-24T00:48:08.669Z,571.4
2023-11-24T00:49:10.467Z,571.5
2023-11-24T00:50:12.253Z,571.4
2023-11-24T00:51:13.993Z,571.5
2023-11-24T00:52:15.809Z,572.5
2023-11-24T00:53:17.607Z,572.7
2023-11-24T00:54:19.466Z,572.9
2023-11-24T00:55:21.173Z,572.3
2023-11-24T00:56:22.966Z,571.9
2023-11-24T00:57:25.032Z,572
2023-11-24T00:58:26.854Z,571.9
2023-11-24T00:59:28.681Z,571.9
2023-11-24T01:00:30.816Z,572.1
2023-11-24T01:01:33.195Z,572.4
2023-11-24T01:02:35.255Z,572.8
2023-11-24T01:03:37.587Z,573.2
2023-11-24T01:04:39.627Z,573.3
2023-11-24T01:05:41.489Z,572.9
2023-11-24T01:06:43.579Z,573.5
2023-11-24T01:07:45.497Z,573.7
2023-11-24T01:08:47.273Z,574.1
2023-11-24T01:09:49.143Z,573.7
2023-11-24T01:10:50.945Z,574.3
2023-11-24T01:11:52.716Z,574.9
2023-11-24T01:12:54.695Z,575.1
2023-11-24T01:13:56.568Z,575.4
2023-11-24T01:14:58.295Z,575.2
2023-11-24T01:16:00.558Z,575.6
2023-11-24T01:17:02.825Z,575.1
2023-11-24T01:18:05.208Z,575.2
2023-11-24T01:19:07.356Z,576.2
2023-11-24T01:20:09.228Z,576.9
2023-11-24T01:21:11.005Z,577
2023-11-24T01:22:12.708Z,577
2023-11-24T01:23:14.487Z,577
2023-11-24T01:24:16.470Z,577.2
2023-11-24T01:25:18.234Z,577.6
2023-11-24T01:26:20.015Z,577.2
2023-11-24T01:27:22.258Z,577.3
2023-11-24T01:28:24.126Z,577.3
2023-11-24T01:29:25.937Z,577.7
2023-11-24T01:30:28.053Z,577.6
2023-11-24T01:31:29.989Z,577.9
2023-11-24T01:32:31.998Z,578
2023-11-24T01:33:34.299Z,579.1
2023-11-24T01:34:36.728Z,579.3
2023-11-24T01:35:38.475Z,579
2023-11-24T01:36:40.748Z,579.6
2023-11-24T01:37:42.609Z,579.4
2023-11-24T01:38:44.429Z,579.3
2023-11-24T01:39:46.617Z,579.8
2023-11-24T01:40:48.482Z,579.4
2023-11-24T01:41:50.250Z,579.1
2023-11-24T01:42:52.392Z,579.9
2023-11-24T01:43:54.523Z,580.2
2023-11-24T01:44:56.255Z,579.7
2023-11-24T01:45:58.570Z,579.9
2023-11-24T01:47:00.814Z,581.1
2023-11-24T01:48:03.025Z,581.2
2023-11-24T01:49:05.031Z,581.1
2023-11-24T01:50:06.772Z,581.4
2023-11-24T01:51:08.749Z,581.7
2023-11-24T01:52:10.553Z,581.9
2023-11-24T01:53:12.311Z,582.1
2023-11-24T01:54:14.273Z,581.9
2023-11-24T01:55:16.454Z,582
2023-11-24T01:56:18.224Z,582.4
2023-11-24T01:57:20.017Z,583.4
2023-11-24T01:58:21.911Z,583
2023-11-24T01:59:23.648Z,582.9
2023-11-24T02:00:25.595Z,583.4
2023-11-24T02:01:27.682Z,583.1
2023-11-24T02:02:30.240Z,583.4
2023-11-24T02:03:32.842Z,584.2
2023-11-24T02:04:34.809Z,584.4
2023-11-24T02:05:36.582Z,583.9
2023-11-24T02:06:38.576Z,583.9
2023-11-24T02:07:40.366Z,584.4
2023-11-24T02:08:42.188Z,584.7
2023-11-24T02:09:44.245Z,584.4
2023-11-24T02:10:46.152Z,584.9
2023-11-24T02:11:47.864Z,584.7
2023-11-24T02:12:49.912Z,585.2
2023-11-24T02:13:51.940Z,585.4
2023-11-24T02:14:53.700Z,585.3
2023-11-24T02:15:58.878Z,585.4
2023-11-24T02:17:01.226Z,585.5
2023-11-24T02:18:03.344Z,586
2023-11-24T02:19:05.703Z,586.9
2023-11-24T02:20:07.618Z,586.8
2023-11-24T02:21:09.343Z,586.6
2023-11-24T02:22:11.109Z,586.8
2023-11-24T02:23:12.886Z,586.6
2023-11-24T02:24:14.640Z,586.7
2023-11-24T02:25:16.528Z,586.8
2023-11-24T02:26:18.403Z,587.6
2023-11-24T02:27:20.213Z,587.8
2023-11-24T02:28:22.061Z,587.7
2023-11-24T02:29:24.125Z,588.1
2023-11-24T02:30:26.019Z,588.3
2023-11-24T02:31:28.454Z,588.3
2023-11-24T02:32:30.408Z,588
2023-11-24T02:33:32.297Z,588.2
2023-11-24T02:34:34.582Z,587.6
2023-11-24T02:35:36.363Z,587.7
2023-11-24T02:36:38.466Z,588.6
2023-11-24T02:37:40.296Z,589.1
2023-11-24T02:38:42.035Z,588.8
2023-11-24T02:39:44.026Z,589.3
2023-11-24T02:40:45.872Z,590.1
2023-11-24T02:41:47.707Z,590.2
2023-11-24T02:42:49.702Z,590
2023-11-24T02:43:51.943Z,590.1
2023-11-24T02:44:53.866Z,590.6
2023-11-24T02:45:56.046Z,590.2
2023-11-24T02:46:57.862Z,591
2023-11-24T02:48:00.020Z,591.6
2023-11-24T02:49:02.586Z,591.4
2023-11-24T02:50:04.539Z,591
2023-11-24T02:51:06.365Z,591
2023-11-24T02:52:08.333Z,591
2023-11-24T02:53:10.087Z,591
2023-11-24T02:54:11.894Z,591
2023-11-24T02:55:13.724Z,590.5
2023-11-24T02:56:15.498Z,590.9
2023-11-24T02:57:17.323Z,591.3
2023-11-24T02:58:19.132Z,591.4
2023-11-24T02:59:20.985Z,591.3
2023-11-24T03:00:22.797Z,591.6
2023-11-24T03:01:24.715Z,592.1
2023-11-24T03:02:27.343Z,592
2023-11-24T03:03:29.448Z,591.6
2023-11-24T03:04:32.136Z,591.5
2023-11-24T03:05:34.057Z,591.7
2023-11-24T03:06:36.150Z,592
2023-11-24T03:07:37.991Z,592.1
2023-11-24T03:08:39.765Z,592
2023-11-24T03:09:41.805Z,591.8
2023-11-24T03:10:43.628Z,591.7
2023-11-24T03:11:45.356Z,592.2
2023-11-24T03:12:47.578Z,592.2
2023-11-24T03:13:49.398Z,592
2023-11-24T03:14:51.378Z,592.7
2023-11-24T03:15:53.563Z,592.3
2023-11-24T03:16:55.839Z,592.7
2023-11-24T03:17:57.699Z,593.2
2023-11-24T03:18:59.977Z,593.5
2023-11-24T03:20:01.866Z,593.5
2023-11-24T03:21:03.696Z,593.9
2023-11-24T03:22:05.730Z,594.1
2023-11-24T03:23:07.531Z,594.5
2023-11-24T03:24:09.341Z,594.5
2023-11-24T03:25:11.082Z,594.6
2023-11-24T03:26:12.812Z,594.6
2023-11-24T03:27:14.597Z,595
2023-11-24T03:28:16.384Z,595.3
2023-11-24T03:29:18.129Z,595.4
2023-11-24T03:30:19.856Z,595.5
2023-11-24T03:31:21.646Z,596
2023-11-24T03:32:23.396Z,596.5
2023-11-24T03:33:25.862Z,596.4
2023-11-24T03:34:28.246Z,596.3
2023-11-24T03:35:30.211Z,596.9
2023-11-24T03:36:32.218Z,597.2
2023-11-24T03:37:34.098Z,597.3
2023-11-24T03:38:35.876Z,597.2
2023-11-24T03:39:37.751Z,597.5
2023-11-24T03:40:39.692Z,597.7
2023-11-24T03:41:41.481Z,598
2023-11-24T03:42:43.522Z,598.4
2023-11-24T03:43:45.361Z,598.4
2023-11-24T03:44:47.116Z,598.5
2023-11-24T03:45:49.118Z,598.3
2023-11-24T03:46:51.262Z,598.6
2023-11-24T03:47:53.348Z,598.5
2023-11-24T03:48:55.574Z,598.8
2023-11-24T03:49:57.390Z,598.8
2023-11-24T03:50:59.164Z,599.2
2023-11-24T03:52:01.442Z,599.5
2023-11-24T03:53:03.370Z,599.9
2023-11-24T03:54:05.156Z,600.1
2023-11-24T03:55:07.190Z,600.4
2023-11-24T03:56:09.000Z,600.2
2023-11-24T03:57:10.773Z,600.5
2023-11-24T03:58:12.531Z,600.5
2023-11-24T03:59:14.409Z,600.6
2023-11-24T04:00:16.189Z,600.5
2023-11-24T04:01:18.603Z,601
2023-11-24T04:02:20.581Z,600.8
2023-11-24T04:03:22.830Z,600.7
2023-11-24T04:04:24.860Z,600.5
2023-11-24T04:05:26.623Z,600.3
2023-11-24T04:06:28.777Z,600.7
2023-11-24T04:07:30.650Z,600.7
2023-11-24T04:08:32.424Z,600.5
2023-11-24T04:09:34.500Z,601
2023-11-24T04:10:36.334Z,600.8
2023-11-24T04:11:38.028Z,600.4
2023-11-24T04:12:40.120Z,600.6
2023-11-24T04:13:41.960Z,600.9
2023-11-24T04:14:43.771Z,600.8
2023-11-24T04:15:46.047Z,600.5
2023-11-24T04:16:48.286Z,600.2
2023-11-24T04:17:50.664Z,600
2023-11-24T04:18:52.886Z,599.9
2023-11-24T04:19:54.684Z,600.1
2023-11-24T04:20:56.426Z,600.3
2023-11-24T04:21:58.581Z,600
2023-11-24T04:23:00.525Z,600
2023-11-24T04:24:02.252Z,600
2023-11-24T04:25:04.298Z,600
2023-11-24T04:26:06.145Z,599.8
2023-11-24T04:27:07.885Z,599.7
2023-11-24T04:28:09.858Z,599.5
2023-11-24T04:29:11.679Z,599.3
2023-11-24T04:30:13.457Z,599.2
2023-11-24T04:31:15.226Z,599.3
2023-11-24T04:32:17.020Z,599.3
2023-11-24T04:33:18.764Z,599.1
2023-11-24T04:34:20.977Z,599.1
2023-11-24T04:35:22.840Z,598.8
2023-11-24T04:36:24.638Z,599.1
2023-11-24T04:37:26.452Z,598.8
2023-11-24T04:38:28.338Z,598.9
2023-11-24T04:39:30.281Z,598.9
2023-11-24T04:40:32.102Z,599.2
2023-11-24T04:41:35.009Z,599.2
2023-11-24T04:42:36.979Z,599.4
2023-11-24T04:43:38.951Z,599.7
2023-11-24T04:44:40.761Z,599.3
2023-11-24T04:45:43.128Z,599.8
2023-11-24T04:46:45.659Z,600.1
2023-11-24T04:47:47.844Z,599.7
2023-11-24T04:48:49.893Z,599.7
2023-11-24T04:49:51.799Z,599.8
2023-11-24T04:50:53.612Z,599.2
2023-11-24T04:51:55.614Z,599
2023-11-24T04:52:57.429Z,599.6
2023-11-24T04:53:59.659Z,599.8
2023-11-24T04:55:01.839Z,599.8
2023-11-24T04:56:03.766Z,600.2
2023-11-24T04:57:05.486Z,600.1
2023-11-24T04:58:07.522Z,600.4
2023-11-24T04:59:09.291Z,600.3
2023-11-24T05:00:11.055Z,600
2023-11-24T05:01:13.628Z,600.1
2023-11-24T05:02:15.859Z,600.5
2023-11-24T05:03:17.829Z,600.3
2023-11-24T05:04:20.188Z,600.4
2023-11-24T05:05:22.157Z,600.2
2023-11-24T05:06:24.114Z,600.4
2023-11-24T05:07:25.878Z,600.2
2023-11-24T05:08:27.702Z,600.3
2023-11-24T05:09:29.781Z,600.2
2023-11-24T05:10:31.550Z,600.6
2023-11-24T05:11:33.361Z,600.2
2023-11-24T05:12:35.180Z,600.6
2023-11-24T05:13:36.893Z,600.7
2023-11-24T05:14:38.672Z,600.8
2023-11-24T05:15:40.981Z,601.6
2023-11-24T05:16:42.834Z,601.4
2023-11-24T05:17:44.635Z,601.7
2023-11-24T05:18:46.660Z,601.7
2023-11-24T05:19:48.483Z,601.8
2023-11-24T05:20:50.196Z,602.2
2023-11-24T05:21:52.135Z,602.7
2023-11-24T05:22:54.082Z,603.1
2023-11-24T05:23:56.233Z,603
2023-11-24T05:24:58.502Z,602.8
2023-11-24T05:26:00.362Z,603.1
2023-11-24T05:27:02.137Z,603.3
2023-11-24T05:28:04.422Z,603.4
2023-11-24T05:29:06.219Z,603.8
2023-11-24T05:30:08.012Z,603.6
2023-11-24T05:31:10.311Z,603.4
2023-11-24T05:32:12.204Z,603.2
2023-11-24T05:33:13.962Z,604
2023-11-24T05:34:15.745Z,604.2
2023-11-24T05:35:17.463Z,604.2
2023-11-24T05:36:19.260Z,604
2023-11-24T05:37:21.027Z,604.3
2023-11-24T05:38:23.041Z,604.5
2023-11-24T05:39:24.887Z,604.5
2023-11-24T05:40:26.741Z,604.9
2023-11-24T05:41:28.520Z,604.5
2023-11-24T05:42:30.552Z,604
2023-11-24T05:43:32.569Z,603.9
2023-11-24T05:44:34.430Z,604.8
2023-11-24T05:45:36.775Z,605.4
2023-11-24T05:46:38.822Z,605.7
2023-11-24T05:47:40.707Z,605.9
2023-11-24T05:48:42.934Z,605.8
2023-11-24T05:49:44.879Z,605.7
2023-11-24T05:50:46.577Z,605.6
2023-11-24T05:51:48.731Z,605.9
2023-11-24T05:52:50.542Z,606.2
2023-11-24T05:53:52.506Z,605.8
2023-11-24T05:54:54.519Z,605.4
2023-11-24T05:55:56.364Z,605.6
2023-11-24T05:56:58.192Z,605.8
2023-11-24T05:58:00.345Z,605.7
2023-11-24T05:59:02.311Z,605.5
2023-11-24T06:00:04.139Z,605.7
2023-11-24T06:01:06.216Z,606.1
2023-11-24T06:02:08.549Z,605.4
2023-11-24T06:03:10.883Z,605.3
2023-11-24T06:04:13.169Z,604.7
2023-11-24T06:05:15.660Z,605
2023-11-24T06:06:17.505Z,604.6
2023-11-24T06:07:19.314Z,604.5
2023-11-24T06:08:21.105Z,604.3
2023-11-24T06:09:22.937Z,604.5
2023-11-24T06:10:24.713Z,604.3
2023-11-24T06:11:26.555Z,604.8
2023-11-24T06:12:28.271Z,604.8
2023-11-24T06:13:30.070Z,605
2023-11-24T06:14:31.902Z,605
2023-11-24T06:15:33.751Z,605.4
2023-11-24T06:16:35.701Z,605.2
2023-11-24T06:17:37.711Z,604.8
2023-11-24T06:18:39.553Z,605.1
2023-11-24T06:19:41.385Z,605.4
2023-11-24T06:20:43.158Z,605.8
2023-11-24T06:21:45.196Z,605.5
2023-11-24T06:22:46.957Z,605.2
2023-11-24T06:23:48.819Z,605.7
2023-11-24T06:24:50.967Z,605.7
2023-11-24T06:25:52.994Z,605.9
2023-11-24T06:26:54.923Z,605.3
2023-11-24T06:27:57.026Z,605.2
2023-11-24T06:28:58.906Z,605.1
2023-11-24T06:30:00.800Z,604.9
2023-11-24T06:31:02.824Z,604.8
2023-11-24T06:32:04.571Z,605.2
2023-11-24T06:33:06.813Z,605.3
2023-11-24T06:34:09.207Z,605.3
2023-11-24T06:35:11.007Z,605.7
2023-11-24T06:36:12.926Z,605.7
2023-11-24T06:37:15.103Z,605.9
2023-11-24T06:38:17.038Z,605.7
2023-11-24T06:39:18.811Z,605.7
2023-11-24T06:40:20.749Z,606
2023-11-24T06:41:22.575Z,606.5
2023-11-24T06:42:24.395Z,606.7
2023-11-24T06:43:26.178Z,606
2023-11-24T06:44:28.137Z,606.1
2023-11-24T06:45:29.892Z,606.2
2023-11-24T06:46:31.879Z,606.8
2023-11-24T06:47:33.983Z,607.3
2023-11-24T06:48:35.964Z,607
2023-11-24T06:49:37.781Z,606.7
2023-11-24T06:50:39.595Z,607.1
2023-11-24T06:51:41.439Z,607.4
2023-11-24T06:52:43.427Z,607.4
2023-11-24T06:53:45.207Z,607.7
2023-11-24T06:54:47.226Z,608.3
2023-11-24T06:55:49.036Z,608.1
2023-11-24T06:56:51.000Z,608.2
2023-11-24T06:57:54.038Z,608.3
2023-11-24T06:58:55.863Z,608.7
2023-11-24T06:59:57.609Z,608.8
2023-11-24T07:00:59.788Z,608.8
2023-11-24T07:02:02.616Z,609.3
2023-11-24T07:03:04.883Z,609.3
2023-11-24T07:04:07.259Z,609.5
2023-11-24T07:05:09.255Z,610
2023-11-24T07:06:11.008Z,609.9
2023-11-24T07:07:13.038Z,609.9
2023-11-24T07:08:14.839Z,610.2
2023-11-24T07:09:16.627Z,610.4
2023-11-24T07:10:18.953Z,610.4
2023-11-24T07:11:20.767Z,610.7
2023-11-24T07:12:22.769Z,610.5
2023-11-24T07:13:24.623Z,610.1
2023-11-24T07:14:26.498Z,610.6
2023-11-24T07:15:28.307Z,610.9
2023-11-24T07:16:30.593Z,610.9
2023-11-24T07:17:32.513Z,611
2023-11-24T07:18:35.183Z,610.7
2023-11-24T07:19:37.521Z,611.7
2023-11-24T07:20:39.580Z,611.5
2023-11-24T07:21:41.426Z,611.7
2023-11-24T07:22:46.060Z,611.7
2023-11-24T07:23:47.879Z,611.5
2023-11-24T07:24:50.046Z,611.7
2023-11-24T07:25:51.826Z,611.8
2023-11-24T07:26:53.819Z,612
2023-11-24T07:27:55.778Z,612.3
2023-11-24T07:28:57.760Z,612.3
2023-11-24T07:29:59.488Z,612.3
2023-11-24T07:31:01.595Z,612.4
2023-11-24T07:32:03.686Z,612.6
2023-11-24T07:33:08.655Z,612.7
2023-11-24T07:34:12.589Z,612.2
2023-11-24T07:35:14.987Z,612.4
2023-11-24T07:36:16.888Z,612
2023-11-24T07:37:18.718Z,612.2
2023-11-24T07:38:20.493Z,612.2
2023-11-24T07:39:22.259Z,612.1
2023-11-24T07:40:24.155Z,611.9
2023-11-24T07:41:25.924Z,612.1
2023-11-24T07:42:27.761Z,612
2023-11-24T07:43:29.592Z,611.8
2023-11-24T07:44:31.540Z,611.8
2023-11-24T07:45:33.594Z,612.3
2023-11-24T07:46:36.030Z,612.4
2023-11-24T07:47:38.090Z,612.1
2023-11-24T07:48:40.196Z,612.2
2023-11-24T07:49:41.968Z,612.2
2023-11-24T07:50:43.774Z,612.3
2023-11-24T07:51:45.746Z,612.5
2023-11-24T07:52:47.499Z,612.6
2023-11-24T07:53:49.307Z,612.4
2023-11-24T07:54:51.149Z,612.6
2023-11-24T07:55:53.021Z,612.8
2023-11-24T07:56:54.886Z,612.9
2023-11-24T07:57:56.728Z,612.7
2023-11-24T07:58:58.508Z,612.4
2023-11-24T08:00:00.531Z,612.9
2023-11-24T08:01:08.741Z,612.7
2023-11-24T08:02:11.442Z,612.5
2023-11-24T08:03:13.342Z,612.7
2023-11-24T08:04:15.665Z,612.2
2023-11-24T08:05:17.769Z,612.6
2023-11-24T08:06:19.516Z,612.5
2023-11-24T08:07:21.447Z,612.4
2023-11-24T08:08:23.350Z,613
2023-11-24T08:09:25.133Z,613.6
2023-11-24T08:10:26.882Z,613.4
2023-11-24T08:11:28.654Z,613.6
2023-11-24T08:12:30.436Z,613.5
2023-11-24T08:13:32.467Z,613
2023-11-24T08:14:34.262Z,613.4
2023-11-24T08:15:36.476Z,613.5
2023-11-24T08:16:38.994Z,613.6
2023-11-24T08:17:41.172Z,614.1
2023-11-24T08:18:43.119Z,614.1
2023-11-24T08:19:44.880Z,614.5
2023-11-24T08:20:46.648Z,614.4
2023-11-24T08:21:48.540Z,614.7
2023-11-24T08:22:50.437Z,615.4
2023-11-24T08:23:52.219Z,615.1
2023-11-24T08:24:54.059Z,615.7
2023-11-24T08:25:55.761Z,615.7
2023-11-24T08:26:57.569Z,615.8
2023-11-24T08:27:59.691Z,616.3
2023-11-24T08:29:01.591Z,616.6
2023-11-24T08:30:03.391Z,617.2
2023-11-24T08:31:05.981Z,617.2
2023-11-24T08:32:08.021Z,617.3
2023-11-24T08:33:09.995Z,617.3
2023-11-24T08:34:12.266Z,617.7
2023-11-24T08:35:14.584Z,618
2023-11-24T08:36:16.466Z,618.1
2023-11-24T08:37:18.456Z,618.2
2023-11-24T08:38:20.355Z,618.3
2023-11-24T08:39:22.099Z,618.2
2023-11-24T08:40:23.927Z,618.8
2023-11-24T08:41:41.363Z,619
2023-11-24T08:42:43.153Z,619.2
2023-11-24T08:43:44.923Z,619.4
2023-11-24T08:44:46.827Z,619.3
2023-11-24T08:45:49.108Z,619.4
2023-11-24T08:46:51.226Z,619.5
2023-11-24T08:47:53.315Z,619.7
2023-11-24T08:48:55.935Z,620
2023-11-24T08:50:01.557Z,620.3
2023-11-24T08:51:03.325Z,620.1
2023-11-24T08:52:05.378Z,620.5
2023-11-24T08:53:07.302Z,620.9
2023-11-24T08:54:09.095Z,620.7
2023-11-24T08:55:11.162Z,620.8
2023-11-24T08:56:13.050Z,621
2023-11-24T08:57:14.812Z,621.1
2023-11-24T08:58:16.980Z,621.6
2023-11-24T08:59:18.772Z,621.8
2023-11-24T09:00:20.621Z,622.1
2023-11-24T09:01:23.091Z,621.8
2023-11-24T09:02:25.658Z,621.8
2023-11-24T09:03:27.540Z,621.8
2023-11-24T09:04:29.848Z,622.1
2023-11-24T09:05:31.674Z,622.5
2023-11-24T09:06:33.751Z,622.6
2023-11-24T09:07:35.515Z,623.1
2023-11-24T09:08:37.315Z,623.5
2023-11-24T09:09:39.174Z,623.5
2023-11-24T09:10:40.877Z,623.8
2023-11-24T09:11:42.656Z,623.4
2023-11-24T09:12:44.749Z,623.3
2023-11-24T09:13:50.381Z,623.4
2023-11-24T09:14:52.783Z,623.7
2023-11-24T09:15:54.922Z,623.5
2023-11-24T09:16:57.022Z,623.7
2023-11-24T09:17:59.271Z,623.8
2023-11-24T09:19:02.213Z,623.6
2023-11-24T09:20:04.040Z,624
2023-11-24T09:21:06.610Z,624.1
2023-11-24T09:22:08.921Z,623.9
2023-11-24T09:23:10.854Z,623.7
2023-11-24T09:24:12.663Z,623.9
2023-11-24T09:25:14.513Z,624.7
2023-11-24T09:26:16.618Z,624.9
2023-11-24T09:27:18.633Z,625.2
2023-11-24T09:28:20.826Z,625.7
2023-11-24T09:29:22.676Z,625.9
2023-11-24T09:30:24.725Z,626
2023-11-24T09:31:26.770Z,626.6
2023-11-24T09:32:28.708Z,626.6
2023-11-24T09:33:30.711Z,627.1
2023-11-24T09:34:33.176Z,626.8
2023-11-24T09:35:35.118Z,626.5
2023-11-24T09:36:37.077Z,626.5
2023-11-24T09:37:38.828Z,626.8
2023-11-24T09:38:40.547Z,627.5
2023-11-24T09:39:42.403Z,628
2023-11-24T09:40:44.157Z,628.1
2023-11-24T09:41:46.029Z,628.5
2023-11-24T09:42:48.498Z,628.6
2023-11-24T09:43:50.636Z,628.7
2023-11-24T09:44:52.486Z,629.1
2023-11-24T09:45:54.720Z,629.3
2023-11-24T09:46:57.093Z,629.1
2023-11-24T09:47:59.152Z,629.2
2023-11-24T09:49:01.259Z,629.3
2023-11-24T09:50:03.053Z,629.9
2023-11-24T09:51:04.964Z,630.5
2023-11-24T09:52:07.015Z,630.8
2023-11-24T09:53:08.798Z,631.1
2023-11-24T09:54:10.571Z,630.9
2023-11-24T09:55:12.447Z,630.7
2023-11-24T09:56:14.222Z,630.9
2023-11-24T09:57:15.998Z,631.5
2023-11-24T09:58:17.889Z,632.2
2023-11-24T09:59:19.745Z,632.5
2023-11-24T10:00:21.522Z,632.5
2023-11-24T10:01:23.564Z,632.2
2023-11-24T10:02:25.764Z,632.7
2023-11-24T10:03:27.801Z,632.6
2023-11-24T10:04:30.064Z,632.1
2023-11-24T10:05:32.787Z,632
2023-11-24T10:06:34.582Z,632.4
2023-11-24T10:07:36.346Z,633.1
2023-11-24T10:08:38.310Z,633.9
2023-11-24T10:09:40.156Z,634.6
2023-11-24T10:10:41.950Z,634.1
2023-11-24T10:11:43.712Z,633.9
2023-11-24T10:12:45.695Z,634
2023-11-24T10:13:52.159Z,635.1
2023-11-24T10:14:53.929Z,635.4
2023-11-24T10:15:55.812Z,635
2023-11-24T10:16:58.007Z,634.1
2023-11-24T10:18:01.469Z,634.8
2023-11-24T10:19:03.773Z,635
2023-11-24T10:20:05.662Z,634.4
2023-11-24T10:21:32.903Z,634.1
2023-11-24T10:22:35.287Z,635.7
2023-11-24T10:23:37.125Z,636.3
2023-11-24T10:24:39.250Z,636.5
2023-11-24T10:25:41.052Z,636.1
2023-11-24T10:26:42.824Z,636.9
2023-11-24T10:27:44.789Z,636.7
2023-11-24T10:28:46.540Z,637.3
2023-11-24T10:29:48.317Z,637.5
2023-11-24T10:30:50.431Z,637.9
2023-11-24T10:31:52.183Z,638.1
2023-11-24T10:32:54.334Z,637.8
2023-11-24T10:33:56.879Z,638
2023-11-24T10:34:59.562Z,638.5
2023-11-24T10:36:01.544Z,638.5
2023-11-24T10:37:03.634Z,638.3
2023-11-24T10:38:05.412Z,638.4
2023-11-24T10:39:07.145Z,638.9
2023-11-24T10:40:09.215Z,639
2023-11-24T10:41:11.047Z,638.6
2023-11-24T10:42:13.265Z,638.6
2023-11-24T10:43:15.276Z,638.6
2023-11-24T10:44:17.054Z,638.7
2023-11-24T10:45:18.824Z,638.9
2023-11-24T10:46:21.304Z,639.3
2023-11-24T10:47:23.827Z,639.1
2023-11-24T10:48:25.587Z,639.3
2023-11-24T10:49:27.342Z,639.4
2023-11-24T10:50:29.317Z,639.8
2023-11-24T10:51:31.181Z,640
2023-11-24T10:52:33.024Z,640.5
2023-11-24T10:53:34.787Z,640.7
2023-11-24T10:54:37.138Z,640.8
2023-11-24T10:55:38.917Z,641.1
2023-11-24T10:56:43.441Z,641.4
2023-11-24T10:57:45.597Z,641
2023-11-24T10:58:47.392Z,641.7
2023-11-24T10:59:49.138Z,641.8
2023-11-24T11:00:51.409Z,642.1
2023-11-24T11:01:53.962Z,641.9
2023-11-24T11:02:56.314Z,642
2023-11-24T11:03:59.820Z,642.6
2023-11-24T11:05:02.783Z,642.7
2023-11-24T11:06:04.595Z,643.2
2023-11-24T11:07:07.103Z,643.5
2023-11-24T11:08:09.172Z,644.2
2023-11-24T11:09:10.932Z,644
2023-11-24T11:10:12.929Z,644.4
2023-11-24T11:11:14.733Z,644.5
2023-11-24T11:12:16.471Z,644.7
2023-11-24T11:13:18.568Z,644.3
2023-11-24T11:14:20.671Z,644.2
2023-11-24T11:15:22.594Z,644.3
2023-11-24T11:16:24.633Z,644.3
2023-11-24T11:17:26.458Z,644.5
2023-11-24T11:18:28.221Z,644.7
2023-11-24T11:19:30.056Z,645
2023-11-24T11:20:31.853Z,645.4
2023-11-24T11:21:33.744Z,645.9
2023-11-24T11:22:35.626Z,646.6
2023-11-24T11:23:37.624Z,647
2023-11-24T11:24:39.614Z,647.5
2023-11-24T11:25:41.443Z,648.6
2023-11-24T11:26:43.201Z,648.2
2023-11-24T11:27:45.288Z,648.5
2023-11-24T11:28:47.273Z,648.1
2023-11-24T11:29:49.297Z,648.8
2023-11-24T11:30:51.870Z,649.4
2023-11-24T11:31:54.631Z,650
2023-11-24T11:32:56.643Z,649.9
2023-11-24T11:33:58.754Z,650.1
2023-11-24T11:35:00.821Z,649.3
2023-11-24T11:36:02.595Z,649.4
2023-11-24T11:37:04.789Z,648.7
2023-11-24T11:38:07.112Z,648.9
2023-11-24T11:39:08.945Z,649.1
2023-11-24T11:40:10.950Z,650
2023-11-24T11:41:13.698Z,649.9
2023-11-24T11:42:15.878Z,650.3
2023-11-24T11:43:18.049Z,650
2023-11-24T11:44:20.188Z,649.8
2023-11-24T11:45:22.064Z,649.5
2023-11-24T11:46:24.741Z,649
2023-11-24T11:47:26.881Z,648.9
2023-11-24T11:48:28.661Z,649.2
2023-11-24T11:49:36.039Z,649.9
2023-11-24T11:50:37.957Z,649.8
2023-11-24T11:51:40.065Z,649.8
2023-11-24T11:52:42.348Z,649.5
2023-11-24T11:53:44.402Z,650.4
2023-11-24T11:54:46.239Z,651.6
2023-11-24T11:55:47.998Z,651.3
2023-11-24T11:56:49.765Z,650.8
2023-11-24T11:57:51.607Z,650
2023-11-24T12:00:00.619Z,650.5
2023-11-24T12:01:02.836Z,651.6
2023-11-24T12:02:05.292Z,652
2023-11-24T12:03:07.735Z,652.7
2023-11-24T12:04:10.084Z,653.2
2023-11-24T12:05:12.026Z,653.8
2023-11-24T12:06:13.874Z,653.6
2023-11-24T12:07:15.858Z,653.5
2023-11-24T12:08:17.677Z,652.7
2023-11-24T12:09:19.525Z,653.3
2023-11-24T12:10:21.485Z,654.4
2023-11-24T12:11:23.453Z,654.4
2023-11-24T12:12:25.514Z,654
2023-11-24T12:13:27.791Z,652.8
2023-11-24T12:14:29.579Z,653.3
2023-11-24T12:15:31.367Z,654.3
2023-11-24T12:16:33.590Z,654.8
2023-11-24T12:17:35.574Z,654.9
2023-11-24T12:18:37.385Z,654.8
2023-11-24T12:19:42.529Z,654.8
2023-11-24T12:20:44.315Z,654.7
2023-11-24T12:21:46.173Z,654.8
2023-11-24T12:22:47.934Z,655.2
2023-11-24T12:23:49.786Z,655.5
2023-11-24T12:24:52.242Z,655.9
2023-11-24T12:25:54.128Z,655.6
2023-11-24T12:26:55.881Z,656
2023-11-24T12:27:57.895Z,656
2023-11-24T12:28:59.681Z,656.1
2023-11-24T12:30:01.691Z,656.3
2023-11-24T12:31:03.974Z,656.6
2023-11-24T12:32:06.314Z,657.1
2023-11-24T12:33:08.358Z,657.8
2023-11-24T12:34:10.517Z,658.5
2023-11-24T12:35:12.314Z,658.2
2023-11-24T12:36:14.088Z,657.9
2023-11-24T12:37:16.387Z,658.4
2023-11-24T12:38:18.106Z,658.9
2023-11-24T12:39:19.875Z,660
2023-11-24T12:40:22.118Z,660.8
2023-11-24T12:41:23.899Z,660.8
2023-11-24T12:42:25.649Z,661.1
2023-11-24T12:43:27.608Z,661
2023-11-24T12:44:29.387Z,661.1
2023-11-24T12:45:31.715Z,662.1
2023-11-24T12:46:34.089Z,663.1
2023-11-24T12:47:43.550Z,663.4
2023-11-24T12:48:45.489Z,663.9
2023-11-24T12:49:47.300Z,663.2
2023-11-24T12:50:49.421Z,662.2
2023-11-24T12:51:51.301Z,662
2023-11-24T12:52:53.051Z,662.1
2023-11-24T12:53:54.800Z,662.9
2023-11-24T12:54:56.859Z,663.1
2023-11-24T12:55:58.964Z,663.1
2023-11-24T12:57:00.741Z,663.2
2023-11-24T12:58:02.636Z,663.5
2023-11-24T12:59:04.450Z,664.6
2023-11-24T13:00:06.293Z,665
2023-11-24T13:01:12.210Z,664.4
2023-11-24T13:02:14.137Z,664.4
2023-11-24T13:03:16.162Z,664.7
2023-11-24T13:04:18.648Z,665.2
2023-11-24T13:05:21.531Z,665.7
2023-11-24T13:06:23.398Z,666.2
2023-11-24T13:07:25.833Z,666.5
2023-11-24T13:08:27.660Z,666.1
2023-11-24T13:09:29.464Z,666.5
2023-11-24T13:10:31.299Z,668.6
2023-11-24T13:11:33.183Z,666.7
2023-11-24T13:12:35.007Z,664.8
2023-11-24T13:13:36.743Z,664.6
2023-11-24T13:14:38.471Z,665.9
2023-11-24T13:15:40.306Z,667.7
2023-11-24T13:16:42.587Z,667.8
2023-11-24T13:17:44.863Z,667.8
2023-11-24T13:18:46.837Z,667.2
2023-11-24T13:19:48.642Z,666.9
2023-11-24T13:20:50.352Z,666.9
2023-11-24T13:21:52.309Z,667.3
2023-11-24T13:22:54.043Z,667.9
2023-11-24T13:23:55.859Z,668.1
2023-11-24T13:24:57.795Z,668
2023-11-24T13:25:59.552Z,667.2
2023-11-24T13:27:01.640Z,666.7